Time,TemperatureF,DewpointF,PressureIn,WindDirection,WindDirectionDegrees,WindSpeedMPH,WindSpeedGustMPH,Humidity,HourlyPrecipIn,Conditions,Clouds,dailyrainin,SoftwareType,DateUTC
2013-06-17 00:03:00,71.9,69.0,29.98,SE,132,1.0,-999.0,90,-99.99,,,0.01,weatherlink.com 1.10,2013-06-17 05:03:00,
2013-06-17 00:18:00,71.7,69.0,29.98,SE,132,0.0,-999.0,91,-99.99,,,0.01,weatherlink.com 1.10,2013-06-17 05:18:00,
2013-06-17 00:33:00,71.6,69.0,29.97,NE,46,0.0,-999.0,91,-99.99,,,0.01,weatherlink.com 1.10,2013-06-17 05:33:00,
2013-06-17 00:48:00,71.5,69.0,29.97,NE,46,0.0,-999.0,91,-99.99,,,0.01,weatherlink.com 1.10,2013-06-17 05:48:00,
2013-06-17 01:03:00,71.3,69.0,29.97,NE,46,0.0,-999.0,92,-99.99,,,0.01,weatherlink.com 1.10,2013-06-17 06:03:00,
2013-06-17 01:18:00,71.1,69.0,29.96,NE,46,0.0,-999.0,92,-99.99,,,0.01,weatherlink.com 1.10,2013-06-17 06:18:00,
2013-06-17 01:33:00,70.8,69.0,29.96,NE,46,0.0,-999.0,93,-99.99,,,0.01,weatherlink.com 1.10,2013-06-17 06:33:00,
2013-06-17 01:48:00,70.7,69.0,29.97,NE,46,0.0,-999.0,93,-99.99,,,0.01,weatherlink.com 1.10,2013-06-17 06:48:00,
2013-06-17 02:03:00,70.7,69.0,29.97,NE,46,1.0,-999.0,93,-99.99,,,0.01,weatherlink.com 1.10,2013-06-17 07:03:00,
2013-06-17 02:18:00,70.7,69.0,29.96,ESE,105,0.0,-999.0,94,-99.99,,,0.00,weatherlink.com 1.10,2013-06-17 07:18:00,
2013-06-17 02:33:00,70.7,69.0,29.97,NE,35,4.0,-999.0,93,-99.99,,,0.00,weatherlink.com 1.10,2013-06-17 07:33:00,
2013-06-17 02:48:00,70.8,69.0,29.97,NNW,335,0.0,-999.0,94,-99.99,,,0.00,weatherlink.com 1.10,2013-06-17 07:48:00,
2013-06-17 03:03:00,70.8,69.0,29.96,NNW,336,0.0,-999.0,94,-99.99,,,0.00,weatherlink.com 1.10,2013-06-17 08:03:00,
2013-06-17 03:18:00,70.7,69.0,29.96,NNW,336,0.0,-999.0,94,-99.99,,,0.00,weatherlink.com 1.10,2013-06-17 08:18:00,
2013-06-17 03:33:00,70.6,69.0,29.96,NNW,336,0.0,-999.0,94,-99.99,,,0.00,weatherlink.com 1.10,2013-06-17 08:33:00,
2013-06-17 03:48:00,70.5,69.0,29.96,NNW,336,0.0,-999.0,94,-99.99,,,0.00,weatherlink.com 1.10,2013-06-17 08:48:00,
2013-06-17 04:03:00,70.4,69.0,29.96,NNW,336,0.0,-999.0,94,-99.99,,,0.00,weatherlink.com 1.10,2013-06-17 09:03:00,
2013-06-17 04:18:00,70.4,69.0,29.97,NNW,336,0.0,-999.0,94,-99.99,,,0.00,weatherlink.com 1.10,2013-06-17 09:18:00,
2013-06-17 04:33:00,70.3,69.0,29.96,NNW,336,0.0,-999.0,94,-99.99,,,0.00,weatherlink.com 1.10,2013-06-17 09:33:00,
2013-06-17 04:48:00,70.3,69.0,29.96,NNW,336,0.0,-999.0,94,-99.99,,,0.00,weatherlink.com 1.10,2013-06-17 09:48:00,
2013-06-17 05:03:00,70.2,69.0,29.96,NNW,336,0.0,-999.0,94,-99.99,,,0.00,weatherlink.com 1.10,2013-06-17 10:03:00,
2013-06-17 05:18:00,70.1,69.0,29.97,NNW,336,0.0,-999.0,95,-99.99,,,0.00,weatherlink.com 1.10,2013-06-17 10:18:00,
2013-06-17 05:33:00,70.2,69.0,29.97,NNW,336,0.0,-999.0,95,-99.99,,,0.00,weatherlink.com 1.10,2013-06-17 10:33:00,
2013-06-17 05:48:00,70.2,69.0,29.97,NNW,336,0.0,-999.0,95,-99.99,,,0.00,weatherlink.com 1.10,2013-06-17 10:48:00,
2013-06-17 06:03:00,70.3,69.0,29.97,NNW,336,0.0,-999.0,95,-99.99,,,0.00,weatherlink.com 1.10,2013-06-17 11:03:00,
2013-06-17 06:18:00,70.4,69.0,29.97,NNW,336,0.0,-999.0,95,-99.99,,,0.00,weatherlink.com 1.10,2013-06-17 11:18:00,
2013-06-17 06:33:00,70.6,69.0,29.96,NNW,336,0.0,-999.0,95,-99.99,,,0.00,weatherlink.com 1.10,2013-06-17 11:33:00,
2013-06-17 06:48:00,70.8,69.0,29.96,NNW,336,0.0,-999.0,95,-99.99,,,0.00,weatherlink.com 1.10,2013-06-17 11:48:00,
2013-06-17 07:03:00,71.2,70.0,29.96,NNW,336,0.0,-999.0,95,-99.99,,,0.00,weatherlink.com 1.10,2013-06-17 12:03:00,
2013-06-17 07:18:00,71.4,70.0,29.96,NNW,336,0.0,-999.0,95,-99.99,,,0.00,weatherlink.com 1.10,2013-06-17 12:18:00,
2013-06-17 07:33:00,71.8,70.0,29.96,NNW,336,0.0,-999.0,95,-99.99,,,0.00,weatherlink.com 1.10,2013-06-17 12:33:00,
2013-06-17 07:48:00,72.1,70.0,29.97,NNW,336,0.0,-999.0,94,-99.99,,,0.00,weatherlink.com 1.10,2013-06-17 12:48:00,
2013-06-17 08:03:00,72.5,71.0,29.97,NNW,336,1.0,-999.0,94,-99.99,,,0.00,weatherlink.com 1.10,2013-06-17 13:03:00,
2013-06-17 08:18:00,73.1,71.0,29.97,SW,221,0.0,-999.0,93,-99.99,,,0.00,weatherlink.com 1.10,2013-06-17 13:18:00,
2013-06-17 08:33:00,73.7,71.0,29.98,SSW,194,3.0,-999.0,92,-99.99,,,0.00,weatherlink.com 1.10,2013-06-17 13:33:00,
2013-06-17 08:48:00,74.1,72.0,29.97,WSW,242,0.0,-999.0,92,-99.99,,,0.00,weatherlink.com 1.10,2013-06-17 13:48:00,
2013-06-17 09:03:00,74.5,72.0,29.96,South,171,0.0,-999.0,92,-99.99,,,0.00,weatherlink.com 1.10,2013-06-17 14:03:00,
2013-06-17 09:18:00,75.2,73.0,29.97,WSW,249,1.0,-999.0,92,-99.99,,,0.00,weatherlink.com 1.10,2013-06-17 14:18:00,
2013-06-17 09:33:00,75.7,73.0,29.97,WSW,238,1.0,-999.0,90,-99.99,,,0.00,weatherlink.com 1.10,2013-06-17 14:33:00,
2013-06-17 09:49:00,76.2,73.0,29.97,WSW,247,0.0,-999.0,90,-99.99,,,0.00,weatherlink.com 1.10,2013-06-17 14:49:00,
2013-06-17 10:04:00,77.3,74.0,29.97,WNW,284,0.0,-999.0,89,-99.99,,,0.00,weatherlink.com 1.10,2013-06-17 15:04:00,
2013-06-17 10:19:00,78.2,74.0,29.97,SW,231,0.0,-999.0,87,-99.99,,,0.00,weatherlink.com 1.10,2013-06-17 15:19:00,
2013-06-17 10:34:00,79.2,75.0,29.98,West,276,0.0,-999.0,87,-99.99,,,0.00,weatherlink.com 1.10,2013-06-17 15:34:00,
2013-06-17 10:49:00,80.3,75.0,29.97,WSW,257,5.0,-999.0,84,-99.99,,,0.00,weatherlink.com 1.10,2013-06-17 15:49:00,
2013-06-17 11:04:00,81.4,76.0,29.97,South,179,5.0,-999.0,84,-99.99,,,0.00,weatherlink.com 1.10,2013-06-17 16:04:00,
2013-06-17 11:19:00,82.7,76.0,29.96,SW,225,0.0,-999.0,80,-99.99,,,0.00,weatherlink.com 1.10,2013-06-17 16:19:00,
2013-06-17 11:34:00,83.6,77.0,29.95,SSE,149,4.0,-999.0,79,-99.99,,,0.00,weatherlink.com 1.10,2013-06-17 16:34:00,
2013-06-17 11:49:00,84.1,76.0,29.95,West,278,1.0,-999.0,77,-99.99,,,0.00,weatherlink.com 1.10,2013-06-17 16:49:00,
2013-06-17 12:04:00,85.1,76.0,29.95,West,279,1.0,-999.0,74,-99.99,,,0.00,weatherlink.com 1.10,2013-06-17 17:04:00,
2013-06-17 12:19:00,85.0,77.0,29.95,SW,219,1.0,-999.0,76,-99.99,,,0.00,weatherlink.com 1.10,2013-06-17 17:19:00,
2013-06-17 12:34:00,85.4,76.0,29.93,SSE,157,1.0,-999.0,73,-99.99,,,0.00,weatherlink.com 1.10,2013-06-17 17:34:00,
2013-06-17 12:49:00,84.6,76.0,29.92,South,186,0.0,-999.0,75,-99.99,,,0.00,weatherlink.com 1.10,2013-06-17 17:49:00,
2013-06-17 13:04:00,84.3,77.0,29.93,South,187,2.0,-999.0,79,-99.99,,,0.00,weatherlink.com 1.10,2013-06-17 18:04:00,
2013-06-17 13:19:00,85.3,77.0,29.93,West,273,0.0,-999.0,75,-99.99,,,0.00,weatherlink.com 1.10,2013-06-17 18:19:00,
2013-06-17 13:34:00,85.4,77.0,29.91,West,272,2.0,-999.0,75,-99.99,,,0.00,weatherlink.com 1.10,2013-06-17 18:34:00,
2013-06-17 13:49:00,86.2,77.0,29.92,WSW,240,1.0,-999.0,73,-99.99,,,0.00,weatherlink.com 1.10,2013-06-17 18:49:00,
2013-06-17 14:04:00,86.9,76.0,29.91,SSW,202,3.0,-999.0,71,-99.99,,,0.00,weatherlink.com 1.10,2013-06-17 19:04:00,
2013-06-17 14:19:00,86.4,74.0,29.90,NNE,13,0.0,-999.0,67,-99.99,,,0.00,weatherlink.com 1.10,2013-06-17 19:19:00,
2013-06-17 14:34:00,85.9,76.0,29.91,WSW,252,1.0,-999.0,71,-99.99,,,0.00,weatherlink.com 1.10,2013-06-17 19:34:00,
2013-06-17 14:49:00,81.8,69.0,29.90,South,188,1.0,-999.0,66,-99.99,,,0.00,weatherlink.com 1.10,2013-06-17 19:49:00,
2013-06-17 15:04:00,78.4,70.0,29.94,NW,318,2.0,-999.0,75,-99.99,,,0.00,weatherlink.com 1.10,2013-06-17 20:04:00,
2013-06-17 15:19:00,72.4,69.0,29.96,NE,38,1.0,-999.0,88,-99.99,,,0.57,weatherlink.com 1.10,2013-06-17 20:19:00,
2013-06-17 15:34:00,70.9,68.0,29.93,East,91,1.0,-999.0,91,-99.99,,,0.74,weatherlink.com 1.10,2013-06-17 20:34:00,
2013-06-17 15:49:00,69.5,67.0,29.93,East,82,0.0,-999.0,92,-99.99,,,0.75,weatherlink.com 1.10,2013-06-17 20:49:00,
2013-06-17 16:04:00,69.1,67.0,29.93,NNE,28,0.0,-999.0,93,-99.99,,,0.75,weatherlink.com 1.10,2013-06-17 21:04:00,
2013-06-17 16:19:00,69.5,68.0,29.93,ESE,114,0.0,-999.0,95,-99.99,,,0.75,weatherlink.com 1.10,2013-06-17 21:19:00,
2013-06-17 16:34:00,70.3,69.0,29.91,NE,41,0.0,-999.0,95,-99.99,,,0.75,weatherlink.com 1.10,2013-06-17 21:34:00,
2013-06-17 16:49:00,71.1,70.0,29.92,NE,55,0.0,-999.0,95,-99.99,,,0.75,weatherlink.com 1.10,2013-06-17 21:49:00,
2013-06-17 17:04:00,71.8,70.0,29.92,NE,55,2.0,-999.0,94,-99.99,,,0.75,weatherlink.com 1.10,2013-06-17 22:04:00,
2013-06-17 17:19:00,72.4,70.0,29.91,NE,55,0.0,-999.0,92,-99.99,,,0.75,weatherlink.com 1.10,2013-06-17 22:19:00,
2013-06-17 17:34:00,72.7,71.0,29.92,NE,55,0.0,-999.0,93,-99.99,,,0.75,weatherlink.com 1.10,2013-06-17 22:34:00,
2013-06-17 17:49:00,72.7,70.0,29.92,NE,55,0.0,-999.0,92,-99.99,,,0.75,weatherlink.com 1.10,2013-06-17 22:49:00,
2013-06-17 18:04:00,72.8,71.0,29.92,NE,55,0.0,-999.0,93,-99.99,,,0.75,weatherlink.com 1.10,2013-06-17 23:04:00,
2013-06-17 18:19:00,72.9,71.0,29.94,SSW,205,1.0,-999.0,92,-99.99,,,0.75,weatherlink.com 1.10,2013-06-17 23:19:00,
2013-06-17 18:34:00,72.4,70.0,29.93,SSE,165,1.0,-999.0,92,-99.99,,,0.75,weatherlink.com 1.10,2013-06-17 23:34:00,
2013-06-17 18:49:00,72.1,70.0,29.93,South,184,0.0,-999.0,92,-99.99,,,0.75,weatherlink.com 1.10,2013-06-17 23:49:00,
2013-06-17 19:05:00,71.9,70.0,29.92,SW,215,1.0,-999.0,92,-99.99,,,0.75,weatherlink.com 1.10,2013-06-18 00:05:00,
2013-06-17 19:20:00,71.8,70.0,29.93,SW,215,0.0,-999.0,93,-99.99,,,0.75,weatherlink.com 1.10,2013-06-18 00:20:00,
2013-06-17 19:35:00,71.6,70.0,29.92,SW,215,0.0,-999.0,94,-99.99,,,0.75,weatherlink.com 1.10,2013-06-18 00:35:00,
2013-06-17 19:50:00,71.4,70.0,29.93,SW,215,0.0,-999.0,94,-99.99,,,0.75,weatherlink.com 1.10,2013-06-18 00:50:00,
2013-06-17 20:05:00,71.2,69.0,29.93,SW,215,0.0,-999.0,94,-99.99,,,0.75,weatherlink.com 1.10,2013-06-18 01:05:00,
2013-06-17 20:20:00,71.2,69.0,29.92,SW,215,0.0,-999.0,94,-99.99,,,0.75,weatherlink.com 1.10,2013-06-18 01:20:00,
2013-06-17 20:35:00,71.0,69.0,29.91,SW,215,0.0,-999.0,94,-99.99,,,0.75,weatherlink.com 1.10,2013-06-18 01:35:00,
2013-06-17 20:50:00,70.9,70.0,29.90,SW,215,0.0,-999.0,95,-99.99,,,0.75,weatherlink.com 1.10,2013-06-18 01:50:00,
2013-06-17 21:05:00,70.7,69.0,29.90,SW,215,0.0,-999.0,95,-99.99,,,0.75,weatherlink.com 1.10,2013-06-18 02:05:00,
2013-06-17 21:20:00,70.5,69.0,29.90,SW,215,0.0,-999.0,95,-99.99,,,0.75,weatherlink.com 1.10,2013-06-18 02:20:00,
2013-06-17 21:35:00,70.4,69.0,29.90,SW,215,0.0,-999.0,95,-99.99,,,0.75,weatherlink.com 1.10,2013-06-18 02:35:00,
2013-06-17 21:50:00,70.3,69.0,29.90,SW,215,0.0,-999.0,95,-99.99,,,0.75,weatherlink.com 1.10,2013-06-18 02:50:00,
2013-06-17 22:05:00,70.3,69.0,29.90,WSW,245,0.0,-999.0,95,-99.99,,,0.75,weatherlink.com 1.10,2013-06-18 03:05:00,
2013-06-17 22:20:00,70.3,69.0,29.90,WSW,245,2.0,-999.0,96,-99.99,,,0.75,weatherlink.com 1.10,2013-06-18 03:20:00,
2013-06-17 22:35:00,70.5,69.0,29.90,WSW,245,0.0,-999.0,96,-99.99,,,0.75,weatherlink.com 1.10,2013-06-18 03:35:00,
2013-06-17 22:50:00,70.4,69.0,29.90,WSW,245,0.0,-999.0,96,-99.99,,,0.75,weatherlink.com 1.10,2013-06-18 03:50:00,
2013-06-17 23:05:00,70.3,69.0,29.89,WSW,242,0.0,-999.0,96,-99.99,,,0.75,weatherlink.com 1.10,2013-06-18 04:05:00,
2013-06-17 23:20:00,70.1,69.0,29.89,West,262,0.0,-999.0,95,-99.99,,,0.75,weatherlink.com 1.10,2013-06-18 04:20:00,
2013-06-17 23:35:00,69.9,69.0,29.90,SSW,202,0.0,-999.0,96,-99.99,,,0.76,weatherlink.com 1.10,2013-06-18 04:35:00,
2013-06-17 23:50:00,69.9,69.0,29.89,SE,141,1.0,-999.0,96,-99.99,,,0.76,weatherlink.com 1.10,2013-06-18 04:50:00,